Time;durP1;ratioP1;P1;durP2;ratioP2;P2;SDS_P1;SDS_P2;PMS_P1;PMS_P2;Temp;Humidity;BMP_temperature;BMP_pressure;BME280_temperature;BME280_humidity;BME280_pressure;Samples;Min_cycle;Max_cycle;Signal;HPM_P1;HPM_P2
2024/02/06 00:01:35;;;;;;;7.75;4.32;;;;;;;;;;5073767;28;20048;-61
2024/02/06 00:04:02;;;;;;;9.38;4.65;;;;;;;;;;5073915;28;20052;-60
2024/02/06 00:06:29;;;;;;;7.43;3.70;;;;;;;;;;5072718;28;20052;-60
2024/02/06 00:08:56;;;;;;;8.15;4.38;;;;;;;;;;5073578;28;20059;-60
2024/02/06 00:11:24;;;;;;;9.32;3.70;;;;;;;;;;5073131;28;20075;-60
2024/02/06 00:13:51;;;;;;;5.75;3.40;;;;;;;;;;5073665;28;20053;-60
2024/02/06 00:16:18;;;;;;;8.95;3.92;;;;;;;;;;5073073;28;20499;-60
2024/02/06 00:18:45;;;;;;;7.88;3.88;;;;;;;;;;5073595;28;20064;-60
2024/02/06 00:21:11;;;;;;;7.57;4.00;;;;;;;;;;5073361;28;20053;-60
2024/02/06 00:23:38;;;;;;;6.00;3.88;;;;;;;;;;5073462;28;20059;-60
2024/02/06 00:26:05;;;;;;;7.20;4.20;;;;;;;;;;5073207;28;20052;-60
2024/02/06 00:28:34;;;;;;;8.80;4.40;;;;;;;;;;5073390;28;20387;-60
2024/02/06 00:31:00;;;;;;;8.50;4.05;;;;;;;;;;5072965;28;20147;-60
2024/02/06 00:33:27;;;;;;;7.88;4.35;;;;;;;;;;5073471;28;20059;-60
2024/02/06 00:35:54;;;;;;;9.38;3.80;;;;;;;;;;5073225;28;20067;-60
2024/02/06 00:38:21;;;;;;;9.68;4.53;;;;;;;;;;5073310;28;20403;-60
2024/02/06 00:40:48;;;;;;;7.95;4.25;;;;;;;;;;5072593;28;20045;-60
2024/02/06 00:43:15;;;;;;;6.95;3.95;;;;;;;;;;5073163;28;20045;-60
2024/02/06 00:45:43;;;;;;;7.45;4.20;;;;;;;;;;5072593;28;20057;-60
2024/02/06 00:48:10;;;;;;;8.98;4.10;;;;;;;;;;5073013;28;20055;-60
2024/02/06 00:50:37;;;;;;;9.32;4.35;;;;;;;;;;5072512;28;20071;-60
2024/02/06 00:53:04;;;;;;;7.40;4.07;;;;;;;;;;5072803;28;20052;-60
2024/02/06 00:55:31;;;;;;;9.90;4.53;;;;;;;;;;5072941;28;20434;-60
2024/02/06 00:57:58;;;;;;;10.15;4.68;;;;;;;;;;5072872;28;20048;-60
2024/02/06 01:00:25;;;;;;;7.28;4.43;;;;;;;;;;5072512;28;20052;-62
2024/02/06 01:02:53;;;;;;;8.48;4.63;;;;;;;;;;5072701;28;20510;-59
2024/02/06 01:05:20;;;;;;;7.07;4.47;;;;;;;;;;5072575;28;20070;-60
2024/02/06 01:07:47;;;;;;;7.20;3.85;;;;;;;;;;5072484;28;20072;-59
2024/02/06 01:10:14;;;;;;;11.05;4.30;;;;;;;;;;5072813;28;20060;-60
2024/02/06 01:12:41;;;;;;;8.80;4.90;;;;;;;;;;5072631;28;20060;-62
2024/02/06 01:15:08;;;;;;;8.75;4.65;;;;;;;;;;5072254;28;20127;-61
2024/02/06 01:17:34;;;;;;;8.30;4.80;;;;;;;;;;5072502;28;20075;-60
2024/02/06 01:20:03;;;;;;;9.63;4.80;;;;;;;;;;5072308;28;20052;-60
2024/02/06 01:22:29;;;;;;;7.00;4.60;;;;;;;;;;5072531;28;20423;-60
2024/02/06 01:24:57;;;;;;;9.35;4.53;;;;;;;;;;5072087;28;20060;-60
2024/02/06 01:27:23;;;;;;;8.73;4.72;;;;;;;;;;5071924;28;20067;-60
2024/02/06 01:29:50;;;;;;;9.07;4.97;;;;;;;;;;5071464;28;20498;-59
2024/02/06 01:32:17;;;;;;;10.52;4.63;;;;;;;;;;5071073;28;20112;-60
2024/02/06 01:34:44;;;;;;;11.30;4.65;;;;;;;;;;5072138;28;20411;-60
2024/02/06 01:37:12;;;;;;;7.28;4.05;;;;;;;;;;5072105;28;20483;-60
2024/02/06 01:39:39;;;;;;;9.10;4.75;;;;;;;;;;5072180;28;20060;-60
2024/02/06 01:42:06;;;;;;;9.35;4.78;;;;;;;;;;5072229;28;20060;-60
2024/02/06 01:44:33;;;;;;;7.47;4.63;;;;;;;;;;5072095;28;20055;-60
2024/02/06 01:46:59;;;;;;;7.30;4.43;;;;;;;;;;5071938;28;20067;-60
2024/02/06 01:49:27;;;;;;;8.27;4.70;;;;;;;;;;5071944;28;20388;-60
2024/02/06 01:51:54;;;;;;;8.18;4.55;;;;;;;;;;5071839;28;20052;-60
2024/02/06 01:54:22;;;;;;;8.30;4.32;;;;;;;;;;5071884;28;20052;-60
2024/02/06 01:56:49;;;;;;;8.32;4.32;;;;;;;;;;5071772;28;20075;-60
2024/02/06 01:59:16;;;;;;;10.68;4.90;;;;;;;;;;5071852;28;20052;-61
2024/02/06 02:01:43;;;;;;;8.15;4.00;;;;;;;;;;5071734;28;20052;-61
2024/02/06 02:04:10;;;;;;;6.53;4.07;;;;;;;;;;5071758;28;20056;-60
2024/02/06 02:06:37;;;;;;;8.40;3.95;;;;;;;;;;5071848;28;20053;-60
2024/02/06 02:09:05;;;;;;;10.20;4.65;;;;;;;;;;5071995;28;20056;-60
2024/02/06 02:11:33;;;;;;;7.38;4.10;;;;;;;;;;5071828;28;20055;-60
2024/02/06 02:14:00;;;;;;;9.38;4.30;;;;;;;;;;5072096;28;20482;-61
2024/02/06 02:16:27;;;;;;;10.57;4.35;;;;;;;;;;5071695;28;20056;-60
2024/02/06 02:18:54;;;;;;;9.52;3.70;;;;;;;;;;5071556;28;20056;-61
2024/02/06 02:21:22;;;;;;;7.15;3.53;;;;;;;;;;5071488;28;20052;-61
2024/02/06 02:23:49;;;;;;;10.43;4.22;;;;;;;;;;5072018;28;20056;-60
2024/02/06 02:26:15;;;;;;;7.03;3.33;;;;;;;;;;5071586;28;20072;-60
2024/02/06 02:28:42;;;;;;;8.65;3.60;;;;;;;;;;5071675;28;20057;-61
2024/02/06 02:31:10;;;;;;;5.65;3.75;;;;;;;;;;5074742;28;20045;-60
2024/02/06 02:33:37;;;;;;;10.02;3.60;;;;;;;;;;5076257;28;20052;-60
2024/02/06 02:36:04;;;;;;;10.43;3.67;;;;;;;;;;5075257;28;20528;-60
2024/02/06 02:38:32;;;;;;;7.75;3.80;;;;;;;;;;5075769;28;20053;-60
2024/02/06 02:40:59;;;;;;;10.82;3.63;;;;;;;;;;5075015;28;20048;-60
2024/02/06 02:43:26;;;;;;;9.07;3.65;;;;;;;;;;5075586;28;20056;-60
2024/02/06 02:45:53;;;;;;;7.05;3.70;;;;;;;;;;5075365;28;20383;-61
2024/02/06 02:48:19;;;;;;;9.20;3.47;;;;;;;;;;5075591;28;20056;-60
2024/02/06 02:50:46;;;;;;;8.77;3.10;;;;;;;;;;5075220;28;20049;-58
2024/02/06 02:53:13;;;;;;;7.47;3.35;;;;;;;;;;5075562;28;20059;-61
2024/02/06 02:55:41;;;;;;;10.63;3.78;;;;;;;;;;5075010;28;20057;-60
2024/02/06 02:58:08;;;;;;;7.30;3.15;;;;;;;;;;5075335;28;20057;-61
2024/02/06 03:00:35;;;;;;;10.85;3.65;;;;;;;;;;5074870;28;20048;-60
2024/02/06 03:03:02;;;;;;;8.50;3.30;;;;;;;;;;5075173;28;20057;-61
2024/02/06 03:05:29;;;;;;;8.20;3.63;;;;;;;;;;5074995;28;20522;-60
2024/02/06 03:07:55;;;;;;;7.63;3.72;;;;;;;;;;5075087;28;20056;-60
2024/02/06 03:10:22;;;;;;;8.10;3.45;;;;;;;;;;5074886;28;20052;-60
2024/02/06 03:12:50;;;;;;;6.40;3.65;;;;;;;;;;5074908;28;20472;-60
2024/02/06 03:15:17;;;;;;;8.90;3.30;;;;;;;;;;5074639;28;20060;-60
2024/02/06 03:17:44;;;;;;;9.15;3.38;;;;;;;;;;5074655;28;20053;-60
2024/02/06 03:20:11;;;;;;;8.90;3.33;;;;;;;;;;5074750;28;20064;-61
2024/02/06 03:22:38;;;;;;;10.63;3.75;;;;;;;;;;5074712;28;20483;-61
2024/02/06 03:25:06;;;;;;;7.65;3.88;;;;;;;;;;5074458;28;20471;-61
2024/02/06 03:27:33;;;;;;;8.57;4.10;;;;;;;;;;5074606;28;20071;-61
2024/02/06 03:30:02;;;;;;;10.30;3.80;;;;;;;;;;5074269;28;20057;-61
2024/02/06 03:32:29;;;;;;;9.05;3.75;;;;;;;;;;5074420;28;20048;-61
2024/02/06 03:34:55;;;;;;;9.27;3.20;;;;;;;;;;5074720;28;20052;-61
2024/02/06 03:37:22;;;;;;;9.38;3.25;;;;;;;;;;5074519;28;20391;-61
2024/02/06 03:39:49;;;;;;;9.18;3.60;;;;;;;;;;5074546;28;20380;-60
2024/02/06 03:42:16;;;;;;;9.70;3.63;;;;;;;;;;5072986;28;20053;-61
2024/02/06 03:44:42;;;;;;;8.00;3.22;;;;;;;;;;5074055;28;20067;-62
2024/02/06 03:47:11;;;;;;;8.80;3.55;;;;;;;;;;5074027;28;20059;-62
2024/02/06 03:49:37;;;;;;;10.45;3.20;;;;;;;;;;5074351;28;20052;-62
2024/02/06 03:52:05;;;;;;;9.68;3.30;;;;;;;;;;5074297;28;20479;-61
2024/02/06 03:54:32;;;;;;;7.88;3.60;;;;;;;;;;5073770;28;20053;-61
2024/02/06 03:56:59;;;;;;;7.07;3.53;;;;;;;;;;5073958;28;20509;-61
2024/02/06 03:59:26;;;;;;;7.47;3.50;;;;;;;;;;5074064;28;20056;-60
2024/02/06 04:01:52;;;;;;;10.60;3.88;;;;;;;;;;5073605;28;20053;-60
2024/02/06 04:04:21;;;;;;;8.95;3.22;;;;;;;;;;5073925;28;20068;-60
2024/02/06 04:06:48;;;;;;;8.90;3.97;;;;;;;;;;5073507;28;20391;-61
2024/02/06 04:09:14;;;;;;;8.77;3.70;;;;;;;;;;5073869;28;20048;-61
2024/02/06 04:11:41;;;;;;;9.85;3.78;;;;;;;;;;5073651;28;20056;-61
2024/02/06 04:14:08;;;;;;;8.85;3.30;;;;;;;;;;5073690;28;20060;-60
2024/02/06 04:16:35;;;;;;;8.30;3.45;;;;;;;;;;5073051;28;20061;-60
2024/02/06 04:19:02;;;;;;;10.10;3.47;;;;;;;;;;5073594;28;20064;-60
2024/02/06 04:21:30;;;;;;;10.25;3.78;;;;;;;;;;5072974;28;20049;-60
2024/02/06 04:23:57;;;;;;;9.88;3.75;;;;;;;;;;5073430;28;20067;-60
2024/02/06 04:26:23;;;;;;;8.02;3.88;;;;;;;;;;5073359;28;20487;-60
2024/02/06 04:28:50;;;;;;;8.80;3.28;;;;;;;;;;5073301;28;20048;-60
2024/02/06 04:31:17;;;;;;;10.23;3.92;;;;;;;;;;5072993;28;20048;-61
2024/02/06 04:33:44;;;;;;;12.82;3.63;;;;;;;;;;5073388;28;20057;-60
2024/02/06 04:36:11;;;;;;;10.77;3.92;;;;;;;;;;5073269;28;20052;-60
2024/02/06 04:38:39;;;;;;;10.65;3.75;;;;;;;;;;5073421;28;20048;-60
2024/02/06 04:41:06;;;;;;;8.98;3.28;;;;;;;;;;5073195;28;20068;-60
2024/02/06 04:43:33;;;;;;;9.02;3.05;;;;;;;;;;5073209;28;20067;-60
2024/02/06 04:46:00;;;;;;;8.05;3.60;;;;;;;;;;5073027;28;20411;-60
2024/02/06 04:48:27;;;;;;;7.72;3.38;;;;;;;;;;5072641;28;20052;-61
2024/02/06 04:50:53;;;;;;;8.65;3.42;;;;;;;;;;5072889;28;20052;-60
2024/02/06 04:53:20;;;;;;;9.40;3.22;;;;;;;;;;5072521;28;20056;-60
2024/02/06 04:55:48;;;;;;;7.53;3.20;;;;;;;;;;5071737;28;20152;-60
2024/02/06 04:58:15;;;;;;;6.53;3.13;;;;;;;;;;5072419;28;20447;-60
2024/02/06 05:00:42;;;;;;;7.25;3.30;;;;;;;;;;5072386;28;20052;-61
2024/02/06 05:03:09;;;;;;;9.68;3.42;;;;;;;;;;5072520;28;20055;-61
2024/02/06 05:05:35;;;;;;;8.23;3.63;;;;;;;;;;5072369;28;20052;-61
2024/02/06 05:08:02;;;;;;;10.32;3.40;;;;;;;;;;5072096;28;20052;-60
2024/02/06 05:10:29;;;;;;;11.43;4.45;;;;;;;;;;5072828;28;20063;-60
2024/02/06 05:12:58;;;;;;;7.10;3.45;;;;;;;;;;5072889;28;20044;-60
2024/02/06 05:15:24;;;;;;;7.55;3.47;;;;;;;;;;5072488;28;20419;-60
2024/02/06 05:17:51;;;;;;;7.47;3.47;;;;;;;;;;5072704;28;20053;-60
2024/02/06 05:20:18;;;;;;;9.82;3.45;;;;;;;;;;5072729;28;20048;-60
2024/02/06 05:22:45;;;;;;;6.20;3.20;;;;;;;;;;5072361;28;20044;-61
2024/02/06 05:25:12;;;;;;;8.55;3.95;;;;;;;;;;5072390;28;20048;-61
2024/02/06 05:27:39;;;;;;;6.15;3.15;;;;;;;;;;5072401;28;20056;-61
2024/02/06 05:30:08;;;;;;;6.60;3.22;;;;;;;;;;5072507;28;20075;-60
2024/02/06 05:32:35;;;;;;;10.18;3.58;;;;;;;;;;5072280;28;20044;-60
2024/02/06 05:35:02;;;;;;;7.88;3.95;;;;;;;;;;5072412;28;20048;-60
2024/02/06 05:37:28;;;;;;;9.70;3.55;;;;;;;;;;5072470;28;20410;-61
2024/02/06 05:39:55;;;;;;;7.97;3.22;;;;;;;;;;5071997;28;20051;-60
2024/02/06 05:42:22;;;;;;;10.13;4.13;;;;;;;;;;5072177;28;20107;-60
2024/02/06 05:44:49;;;;;;;12.85;4.28;;;;;;;;;;5072489;28;20063;-60
2024/02/06 05:47:17;;;;;;;8.27;3.55;;;;;;;;;;5072187;28;20052;-60
2024/02/06 05:49:44;;;;;;;9.75;3.90;;;;;;;;;;5071962;28;20056;-60
2024/02/06 05:52:12;;;;;;;7.78;3.95;;;;;;;;;;5072339;28;20303;-60
2024/02/06 05:54:39;;;;;;;8.02;3.63;;;;;;;;;;5072111;28;20048;-60
2024/02/06 05:57:05;;;;;;;8.80;4.18;;;;;;;;;;5072178;28;20072;-60
2024/02/06 05:59:32;;;;;;;11.18;4.07;;;;;;;;;;5071957;28;20052;-60
2024/02/06 06:01:59;;;;;;;9.88;3.95;;;;;;;;;;5071638;28;20044;-60
2024/02/06 06:04:27;;;;;;;8.85;4.07;;;;;;;;;;5072028;28;20392;-60
2024/02/06 06:06:54;;;;;;;9.20;4.57;;;;;;;;;;5075783;28;20048;-60
2024/02/06 06:09:21;;;;;;;9.43;4.75;;;;;;;;;;5076112;28;20348;-60
2024/02/06 06:11:48;;;;;;;9.88;4.30;;;;;;;;;;5075628;28;20048;-60
2024/02/06 06:14:15;;;;;;;9.25;4.18;;;;;;;;;;5075879;28;20053;-60
2024/02/06 06:16:41;;;;;;;7.13;4.20;;;;;;;;;;5075559;28;20063;-60
2024/02/06 06:19:08;;;;;;;8.98;4.70;;;;;;;;;;5075622;28;20048;-60
2024/02/06 06:21:38;;;;;;;9.23;4.43;;;;;;;;;;5075422;28;20063;-60
2024/02/06 06:24:05;;;;;;;15.45;4.55;;;;;;;;;;5075868;28;20063;-61
2024/02/06 06:26:32;;;;;;;11.80;4.90;;;;;;;;;;5075381;28;20052;-60
2024/02/06 06:28:59;;;;;;;9.07;4.80;;;;;;;;;;5075407;28;20127;-61
2024/02/06 06:31:25;;;;;;;8.55;4.28;;;;;;;;;;5075477;28;20059;-61
2024/02/06 06:33:52;;;;;;;9.27;4.53;;;;;;;;;;5075239;28;20499;-60
2024/02/06 06:36:19;;;;;;;9.70;4.18;;;;;;;;;;5075100;28;20056;-59
2024/02/06 06:38:47;;;;;;;13.77;5.00;;;;;;;;;;5075388;28;20057;-60
2024/02/06 06:41:14;;;;;;;10.60;5.00;;;;;;;;;;5075271;28;20060;-61
2024/02/06 06:43:41;;;;;;;11.95;4.88;;;;;;;;;;5075006;28;20060;-60
2024/02/06 06:46:07;;;;;;;11.40;4.88;;;;;;;;;;5075050;28;20048;-60
2024/02/06 06:48:34;;;;;;;10.80;4.55;;;;;;;;;;5075125;28;20067;-60
2024/02/06 06:51:01;;;;;;;7.55;4.20;;;;;;;;;;5075099;28;20060;-60
2024/02/06 06:53:28;;;;;;;7.85;4.78;;;;;;;;;;5074837;28;20487;-60
2024/02/06 06:55:56;;;;;;;9.70;4.60;;;;;;;;;;5073647;28;20056;-61
2024/02/06 06:58:23;;;;;;;10.15;4.68;;;;;;;;;;5074411;28;20484;-60
2024/02/06 07:00:50;;;;;;;11.90;4.80;;;;;;;;;;5074442;28;20429;-60
2024/02/06 07:03:17;;;;;;;7.68;4.43;;;;;;;;;;5074811;28;20049;-61
2024/02/06 07:05:44;;;;;;;10.90;4.63;;;;;;;;;;5074407;28;20055;-60
2024/02/06 07:08:11;;;;;;;7.65;3.85;;;;;;;;;;5074563;28;20060;-61
2024/02/06 07:10:37;;;;;;;9.30;4.13;;;;;;;;;;5074387;28;20048;-60
2024/02/06 07:13:06;;;;;;;8.07;4.10;;;;;;;;;;5074696;28;20052;-60
2024/02/06 07:15:33;;;;;;;10.80;4.47;;;;;;;;;;5074325;28;20061;-60
2024/02/06 07:18:00;;;;;;;10.05;4.30;;;;;;;;;;5074555;28;20053;-59
2024/02/06 07:20:26;;;;;;;7.82;4.80;;;;;;;;;;5074753;28;20048;-61
2024/02/06 07:22:53;;;;;;;8.65;4.70;;;;;;;;;;5074568;28;20053;-60
2024/02/06 07:25:20;;;;;;;10.15;4.60;;;;;;;;;;5074760;28;20049;-60
2024/02/06 07:27:47;;;;;;;12.52;4.40;;;;;;;;;;5074642;28;20060;-60
2024/02/06 07:30:15;;;;;;;8.15;4.57;;;;;;;;;;5074227;28;20052;-60
2024/02/06 07:32:42;;;;;;;9.45;4.85;;;;;;;;;;5074581;28;20155;-60
2024/02/06 07:35:09;;;;;;;10.60;5.40;;;;;;;;;;5074424;28;20068;-60
2024/02/06 07:37:37;;;;;;;12.35;4.65;;;;;;;;;;5074641;28;20483;-60
2024/02/06 07:40:05;;;;;;;9.48;4.82;;;;;;;;;;5074100;28;20056;-60
2024/02/06 07:42:32;;;;;;;10.70;4.60;;;;;;;;;;5074474;28;20053;-60
2024/02/06 07:44:59;;;;;;;11.77;4.63;;;;;;;;;;5074488;28;20057;-60
2024/02/06 07:47:27;;;;;;;12.05;4.57;;;;;;;;;;5074413;28;20048;-61
2024/02/06 07:49:54;;;;;;;10.30;4.70;;;;;;;;;;5073711;28;20052;-59
2024/02/06 07:52:21;;;;;;;8.20;5.03;;;;;;;;;;5073858;28;20053;-61
2024/02/06 07:54:47;;;;;;;11.65;5.68;;;;;;;;;;5073951;28;20056;-60
2024/02/06 07:57:14;;;;;;;11.50;5.00;;;;;;;;;;5074058;28;20494;-60
2024/02/06 07:59:41;;;;;;;8.88;4.72;;;;;;;;;;5073810;28;20049;-60
2024/02/06 08:02:08;;;;;;;10.00;4.80;;;;;;;;;;5073955;28;20064;-60
2024/02/06 08:04:37;;;;;;;12.45;5.15;;;;;;;;;;5073679;28;20055;-60
2024/02/06 08:07:04;;;;;;;10.90;4.57;;;;;;;;;;5073699;28;20052;-60
2024/02/06 08:09:31;;;;;;;9.60;4.72;;;;;;;;;;5073707;28;20446;-60
2024/02/06 08:11:58;;;;;;;10.90;4.72;;;;;;;;;;5073873;28;20403;-60
2024/02/06 08:14:24;;;;;;;9.48;4.28;;;;;;;;;;5073842;28;20526;-60
2024/02/06 08:16:51;;;;;;;12.30;4.88;;;;;;;;;;5073557;28;20510;-61
2024/02/06 08:19:18;;;;;;;11.07;4.72;;;;;;;;;;5073536;28;20495;-61
2024/02/06 08:21:46;;;;;;;7.72;4.53;;;;;;;;;;5073040;28;20484;-60
2024/02/06 08:24:13;;;;;;;14.73;5.60;;;;;;;;;;5073390;28;20044;-60
2024/02/06 08:26:40;;;;;;;10.85;4.45;;;;;;;;;;5073298;28;20399;-60
2024/02/06 08:29:07;;;;;;;10.10;4.80;;;;;;;;;;5072769;28;20053;-60
2024/02/06 08:31:34;;;;;;;11.70;4.53;;;;;;;;;;5073367;28;20075;-60
2024/02/06 08:34:01;;;;;;;13.75;4.70;;;;;;;;;;5073189;28;20456;-60
2024/02/06 08:36:27;;;;;;;13.50;4.85;;;;;;;;;;5073109;28;20056;-60
2024/02/06 08:38:55;;;;;;;9.95;4.38;;;;;;;;;;5072843;28;20080;-60
2024/02/06 08:41:28;;;;;;;9.50;4.50;;;;;;;;;;5072997;28;20487;-58
2024/02/06 08:43:55;;;;;;;10.90;4.90;;;;;;;;;;5073383;28;20044;-59
2024/02/06 08:46:22;;;;;;;11.68;4.53;;;;;;;;;;5072928;28;20053;-60
2024/02/06 08:48:49;;;;;;;9.60;4.70;;;;;;;;;;5072933;28;20055;-60
2024/02/06 08:51:16;;;;;;;10.73;5.57;;;;;;;;;;5072608;28;20048;-60
2024/02/06 08:53:42;;;;;;;15.80;4.60;;;;;;;;;;5073214;28;20048;-61
2024/02/06 08:56:11;;;;;;;10.73;4.20;;;;;;;;;;5072775;28;20075;-60
2024/02/06 08:58:37;;;;;;;20.08;4.90;;;;;;;;;;5073192;28;20063;-60
2024/02/06 09:01:04;;;;;;;11.00;4.65;;;;;;;;;;5073165;28;20063;-61
2024/02/06 09:03:31;;;;;;;10.65;4.07;;;;;;;;;;5073049;28;20053;-60
2024/02/06 09:05:58;;;;;;;11.50;4.38;;;;;;;;;;5073007;28;20407;-60
2024/02/06 09:08:25;;;;;;;11.10;4.47;;;;;;;;;;5072830;28;20060;-60
2024/02/06 09:10:51;;;;;;;12.55;3.97;;;;;;;;;;5072506;28;20052;-60
2024/02/06 09:13:21;;;;;;;11.80;4.25;;;;;;;;;;5073136;28;20045;-60
2024/02/06 09:15:48;;;;;;;9.57;4.03;;;;;;;;;;5072604;28;20057;-60
2024/02/06 09:18:15;;;;;;;9.45;3.90;;;;;;;;;;5072480;28;20060;-61
2024/02/06 09:20:43;;;;;;;9.88;4.15;;;;;;;;;;5072518;28;20056;-61
2024/02/06 09:23:09;;;;;;;11.10;4.72;;;;;;;;;;5072819;28;20057;-60
2024/02/06 09:25:36;;;;;;;10.90;4.50;;;;;;;;;;5072828;28;20052;-61
2024/02/06 09:28:05;;;;;;;10.63;4.40;;;;;;;;;;5072948;28;20048;-60
2024/02/06 09:30:34;;;;;;;12.30;4.20;;;;;;;;;;5072647;28;20059;-60
2024/02/06 09:33:01;;;;;;;8.95;3.67;;;;;;;;;;5072575;28;20411;-60
2024/02/06 09:35:28;;;;;;;10.70;4.60;;;;;;;;;;5072585;28;20483;-61
2024/02/06 09:37:54;;;;;;;9.30;4.47;;;;;;;;;;5072524;28;20063;-60
2024/02/06 09:40:21;;;;;;;8.07;3.83;;;;;;;;;;5071723;28;20060;-61
2024/02/06 09:42:49;;;;;;;9.38;4.15;;;;;;;;;;5072682;28;20059;-60
2024/02/06 09:45:15;;;;;;;13.48;3.42;;;;;;;;;;5072127;28;20484;-60
2024/02/06 09:47:44;;;;;;;9.60;3.88;;;;;;;;;;5072458;28;20056;-60
2024/02/06 09:50:11;;;;;;;8.38;3.88;;;;;;;;;;5072421;28;20411;-61
2024/02/06 09:52:38;;;;;;;9.50;3.40;;;;;;;;;;5072499;28;20053;-60
2024/02/06 09:55:08;;;;;;;9.40;4.22;;;;;;;;;;5072430;28;20403;-61
2024/02/06 09:57:35;;;;;;;8.32;4.15;;;;;;;;;;5072220;28;20052;-61
2024/02/06 10:00:02;;;;;;;11.63;3.92;;;;;;;;;;5072349;28;20064;-61
2024/02/06 10:02:30;;;;;;;7.00;3.45;;;;;;;;;;5072228;28;20048;-61
2024/02/06 10:04:59;;;;;;;8.00;3.28;;;;;;;;;;5072247;28;20406;-61
2024/02/06 10:07:26;;;;;;;10.20;3.17;;;;;;;;;;5072422;28;20480;-60
2024/02/06 10:09:54;;;;;;;9.25;3.67;;;;;;;;;;5072252;28;20466;-60
2024/02/06 10:12:22;;;;;;;8.15;3.53;;;;;;;;;;5072209;28;20384;-61
2024/02/06 10:14:49;;;;;;;5.88;3.08;;;;;;;;;;5072258;28;20411;-61
2024/02/06 10:17:18;;;;;;;6.03;3.35;;;;;;;;;;5071990;28;20057;-60
2024/02/06 10:19:44;;;;;;;4.82;3.05;;;;;;;;;;5071968;28;20052;-60
2024/02/06 10:22:13;;;;;;;6.40;3.30;;;;;;;;;;5071904;28;20059;-60
2024/02/06 10:24:40;;;;;;;6.00;3.47;;;;;;;;;;5072149;28;20075;-61
2024/02/06 10:27:06;;;;;;;8.75;3.55;;;;;;;;;;5071981;28;20063;-60
2024/02/06 10:29:34;;;;;;;6.82;3.42;;;;;;;;;;5072103;28;20052;-60
2024/02/06 10:32:01;;;;;;;7.18;3.90;;;;;;;;;;5071914;28;20056;-61
2024/02/06 10:34:28;;;;;;;7.97;3.88;;;;;;;;;;5071971;28;20053;-60
2024/02/06 10:36:59;;;;;;;7.50;3.92;;;;;;;;;;5072065;28;20068;-60
2024/02/06 10:39:29;;;;;;;9.18;3.95;;;;;;;;;;5071741;28;20053;-60
2024/02/06 10:41:59;;;;;;;8.45;3.90;;;;;;;;;;5072132;28;20048;-60
2024/02/06 10:44:28;;;;;;;7.88;3.80;;;;;;;;;;5071875;28;20053;-60
2024/02/06 10:46:58;;;;;;;10.13;4.47;;;;;;;;;;5071703;28;20067;-59
2024/02/06 10:49:25;;;;;;;8.18;3.65;;;;;;;;;;5072140;28;20056;-59
2024/02/06 10:51:52;;;;;;;6.97;3.72;;;;;;;;;;5074257;28;20400;-60
2024/02/06 10:54:20;;;;;;;11.18;4.10;;;;;;;;;;5075524;28;20052;-60
2024/02/06 10:56:55;;;;;;;9.65;4.20;;;;;;;;;;5075667;28;20079;-60
2024/02/06 10:59:26;;;;;;;8.30;3.83;;;;;;;;;;5075688;28;20419;-60
2024/02/06 11:01:53;;;;;;;10.60;5.13;;;;;;;;;;5075449;28;20585;-60
2024/02/06 11:04:21;;;;;;;8.90;4.05;;;;;;;;;;5075359;28;20063;-60
2024/02/06 11:06:51;;;;;;;7.63;3.95;;;;;;;;;;5074972;28;20053;-61
2024/02/06 11:09:18;;;;;;;8.23;4.20;;;;;;;;;;5075406;28;20059;-60
2024/02/06 11:11:45;;;;;;;11.77;4.90;;;;;;;;;;5075138;28;20403;-60
2024/02/06 11:14:15;;;;;;;11.68;4.95;;;;;;;;;;5074860;28;20048;-61
2024/02/06 11:16:45;;;;;;;8.57;4.38;;;;;;;;;;5074905;28;20059;-60
2024/02/06 11:19:17;;;;;;;8.93;4.45;;;;;;;;;;5075170;28;20052;-60
2024/02/06 11:21:45;;;;;;;9.45;5.03;;;;;;;;;;5075368;28;20056;-60
2024/02/06 11:24:13;;;;;;;9.70;4.45;;;;;;;;;;5074762;28;20506;-60
2024/02/06 11:26:40;;;;;;;5.70;4.07;;;;;;;;;;5074553;28;20064;-60
2024/02/06 11:29:07;;;;;;;8.90;4.45;;;;;;;;;;5074603;28;20055;-60
2024/02/06 11:31:36;;;;;;;6.28;3.78;;;;;;;;;;5074459;28;20537;-60
2024/02/06 11:34:13;;;;;;;8.30;4.43;;;;;;;;;;5074558;28;20048;-60
2024/02/06 11:36:40;;;;;;;7.55;4.20;;;;;;;;;;5074669;28;20056;-60
2024/02/06 11:39:07;;;;;;;7.30;4.45;;;;;;;;;;5075085;28;20049;-60
2024/02/06 11:41:34;;;;;;;8.07;4.28;;;;;;;;;;5074424;28;20182;-60
2024/02/06 11:44:07;;;;;;;8.95;4.22;;;;;;;;;;5074254;28;20134;-60
2024/02/06 11:46:42;;;;;;;11.30;4.13;;;;;;;;;;5074957;28;20491;-60
2024/02/06 11:49:08;;;;;;;10.23;4.43;;;;;;;;;;5074790;28;20052;-60
2024/02/06 11:51:36;;;;;;;7.82;4.30;;;;;;;;;;5074328;28;20056;-60
2024/02/06 11:54:13;;;;;;;11.05;5.25;;;;;;;;;;5074016;28;20060;-59
2024/02/06 11:56:40;;;;;;;9.98;5.60;;;;;;;;;;5073948;28;20064;-60
2024/02/06 11:59:07;;;;;;;11.98;5.65;;;;;;;;;;5074231;28;20063;-61
2024/02/06 12:01:34;;;;;;;13.27;7.20;;;;;;;;;;5073804;28;20048;-61
2024/02/06 12:04:04;;;;;;;11.98;6.95;;;;;;;;;;5073503;28;20403;-60
2024/02/06 12:06:31;;;;;;;9.52;6.03;;;;;;;;;;5074408;28;20407;-60
2024/02/06 12:09:02;;;;;;;12.48;7.00;;;;;;;;;;5074215;28;20048;-60
2024/02/06 12:11:30;;;;;;;13.68;6.22;;;;;;;;;;5073496;28;20067;-60
2024/02/06 12:13:57;;;;;;;12.07;6.50;;;;;;;;;;5074031;28;20510;-60
2024/02/06 12:16:24;;;;;;;10.65;6.25;;;;;;;;;;5073593;28;20053;-61
2024/02/06 12:18:51;;;;;;;13.63;6.30;;;;;;;;;;5073546;28;20052;-61
2024/02/06 12:21:22;;;;;;;8.85;5.50;;;;;;;;;;5073566;28;20059;-61
2024/02/06 12:23:49;;;;;;;10.88;5.63;;;;;;;;;;5073557;28;20056;-61
2024/02/06 12:26:23;;;;;;;11.15;5.85;;;;;;;;;;5073397;28;20411;-61
2024/02/06 12:29:00;;;;;;;8.73;5.60;;;;;;;;;;5072609;28;20052;-61
2024/02/06 12:31:28;;;;;;;9.40;5.53;;;;;;;;;;5073270;28;20052;-60
2024/02/06 12:33:55;;;;;;;11.38;5.90;;;;;;;;;;5073790;28;20063;-61
2024/02/06 12:36:23;;;;;;;11.65;5.95;;;;;;;;;;5073475;28;20056;-61
2024/02/06 12:38:51;;;;;;;9.27;5.78;;;;;;;;;;5073841;28;20055;-60
2024/02/06 12:41:18;;;;;;;10.98;5.63;;;;;;;;;;5073333;28;20063;-61
2024/02/06 12:43:51;;;;;;;14.73;5.80;;;;;;;;;;5072954;28;20053;-61
2024/02/06 12:46:19;;;;;;;10.70;5.68;;;;;;;;;;5072891;28;20071;-60
2024/02/06 12:48:48;;;;;;;12.27;5.78;;;;;;;;;;5073373;28;20450;-61
2024/02/06 12:51:16;;;;;;;9.95;5.90;;;;;;;;;;5073272;28;20055;-61
2024/02/06 12:53:44;;;;;;;12.82;6.03;;;;;;;;;;5073140;28;20060;-61
2024/02/06 12:56:12;;;;;;;12.60;5.95;;;;;;;;;;5073240;28;20057;-61
2024/02/06 12:58:39;;;;;;;13.35;5.78;;;;;;;;;;5073214;28;20052;-60
2024/02/06 13:01:07;;;;;;;10.48;5.07;;;;;;;;;;5073298;28;20055;-61
2024/02/06 13:03:37;;;;;;;11.10;5.00;;;;;;;;;;5073433;28;20052;-61
2024/02/06 13:06:05;;;;;;;11.70;5.35;;;;;;;;;;5073088;28;20483;-61
2024/02/06 13:08:32;;;;;;;13.13;5.20;;;;;;;;;;5073026;28;20052;-61
2024/02/06 13:11:10;;;;;;;11.05;5.25;;;;;;;;;;5073027;28;20115;-60
2024/02/06 13:13:37;;;;;;;9.10;5.20;;;;;;;;;;5072958;28;20059;-61
2024/02/06 13:16:07;;;;;;;9.80;5.07;;;;;;;;;;5069490;28;20500;-60
2024/02/06 13:18:36;;;;;;;8.52;4.40;;;;;;;;;;5069655;28;20059;-61
2024/02/06 13:21:06;;;;;;;13.63;4.53;;;;;;;;;;5072494;28;20056;-60
2024/02/06 13:23:33;;;;;;;10.52;5.15;;;;;;;;;;5072449;28;20052;-61
2024/02/06 13:26:03;;;;;;;9.90;4.53;;;;;;;;;;5072417;28;20049;-61
2024/02/06 13:28:30;;;;;;;12.30;4.63;;;;;;;;;;5072851;28;20063;-60
2024/02/06 13:30:57;;;;;;;11.77;4.70;;;;;;;;;;5072844;28;20063;-61
2024/02/06 13:33:28;;;;;;;10.95;5.03;;;;;;;;;;5072945;28;20060;-61
2024/02/06 13:35:57;;;;;;;12.55;4.50;;;;;;;;;;5072987;28;20052;-61
2024/02/06 13:38:24;;;;;;;10.80;4.70;;;;;;;;;;5072873;28;20407;-61
2024/02/06 13:40:51;;;;;;;14.85;5.07;;;;;;;;;;5071396;28;20064;-61
2024/02/06 13:43:35;;;;;;;12.57;4.95;;;;;;;;;;5069662;28;20059;-61
2024/02/06 13:46:10;;;;;;;13.43;4.70;;;;;;;;;;5072193;28;20055;-60
2024/02/06 13:48:37;;;;;;;16.00;4.68;;;;;;;;;;5073012;28;20048;-60
2024/02/06 13:51:04;;;;;;;10.43;4.40;;;;;;;;;;5072354;28;20057;-60
2024/02/06 13:53:31;;;;;;;12.07;4.45;;;;;;;;;;5069748;28;20402;-60
2024/02/06 13:55:58;;;;;;;9.40;4.32;;;;;;;;;;5072500;28;20407;-61
2024/02/06 13:58:25;;;;;;;9.50;4.15;;;;;;;;;;5072625;28;20048;-61
2024/02/06 14:00:52;;;;;;;13.02;4.47;;;;;;;;;;5072160;28;20057;-60
2024/02/06 14:03:20;;;;;;;8.80;4.03;;;;;;;;;;5072572;28;20056;-60
2024/02/06 14:05:47;;;;;;;9.25;4.13;;;;;;;;;;5071874;28;20064;-60
2024/02/06 14:08:15;;;;;;;10.90;4.10;;;;;;;;;;5072351;28;20471;-60
2024/02/06 14:10:42;;;;;;;11.55;3.92;;;;;;;;;;5071863;28;20131;-60
2024/02/06 14:13:09;;;;;;;9.13;4.07;;;;;;;;;;5072309;28;20063;-60
2024/02/06 14:15:38;;;;;;;10.75;3.75;;;;;;;;;;5068725;28;20049;-60
2024/02/06 14:18:06;;;;;;;8.73;3.67;;;;;;;;;;5066160;28;20064;-60
2024/02/06 14:20:35;;;;;;;9.20;3.92;;;;;;;;;;5070773;28;20053;-59
2024/02/06 14:23:02;;;;;;;6.55;3.10;;;;;;;;;;5072518;28;20407;-60
2024/02/06 14:25:33;;;;;;;7.60;3.47;;;;;;;;;;5072102;28;20075;-60
2024/02/06 14:28:00;;;;;;;9.50;3.35;;;;;;;;;;5075881;28;20052;-61
2024/02/06 14:30:28;;;;;;;8.30;3.50;;;;;;;;;;5075613;28;20091;-61
2024/02/06 14:32:55;;;;;;;11.73;3.97;;;;;;;;;;5072691;28;20052;-61
2024/02/06 14:35:22;;;;;;;9.05;3.65;;;;;;;;;;5075679;28;20052;-61
2024/02/06 14:37:50;;;;;;;8.98;4.05;;;;;;;;;;5075766;28;20055;-62
2024/02/06 14:40:19;;;;;;;10.15;3.80;;;;;;;;;;5075382;28;20048;-61